This is the latest recevied weather packets stored in our database for station/object UR7D-12. If no packets are shown the sender has not sent any weather packets the latest 10 day(s).
| Time | Temp. | Humidity | Pressure | Rain* | Wind** | Luminosity | Snow |
|---|---|---|---|---|---|---|---|
| 1777752699 | 11.67° C | 51% | 995.8 hPa | 0 mm | - | - | - |
| 1777752099 | 12.22° C | 51% | 995.7 hPa | 0 mm | - | - | - |
| 1777751798 | 12.22° C | 51% | 995.8 hPa | 0 mm | - | - | - |
| 1777751497 | 12.22° C | 51% | 995.7 hPa | 0 mm | - | - | - |
| 1777749395 | 12.22° C | 50% | 995.8 hPa | 0 mm | - | - | - |
| 1777748795 | 12.78° C | 50% | 995.8 hPa | 0 mm | - | - | - |
| 1777748194 | 12.78° C | 50% | 995.7 hPa | 0 mm | - | - | - |
| 1777746993 | 13.33° C | 49% | 995.2 hPa | 0 mm | - | - | - |
| 1777746392 | 13.33° C | 49% | 995.2 hPa | 0 mm | - | - | - |
| 1777745191 | 14.44° C | 46% | 995 hPa | 0 mm | - | - | - |
| 1777740688 | 17.22° C | 41% | 994.4 hPa | 0 mm | - | - | - |
| 1777739787 | 17.22° C | 40% | 994.2 hPa | 0 mm | - | - | - |
| 1777739187 | 17.78° C | 40% | 994.2 hPa | 0 mm | - | - | - |
| 1777738885 | 17.78° C | 38% | 994.2 hPa | 0 mm | - | - | - |
| 1777738586 | 17.78° C | 39% | 994.2 hPa | 0 mm | - | - | - |
| 1777737985 | 17.78° C | 37% | 994.3 hPa | 0 mm | - | - | - |
| 1777737685 | 17.78° C | 38% | 994.2 hPa | 0 mm | - | - | - |
| 1777736484 | 18.33° C | 36% | 994.3 hPa | 0 mm | - | - | - |
| 1777735883 | 18.33° C | 36% | 994.4 hPa | 0 mm | - | - | - |
| 1777734682 | 18.89° C | 35% | 994.3 hPa | 0 mm | - | - | - |
| 1777733481 | 18.89° C | 35% | 994.4 hPa | 0 mm | - | - | - |
| 1777732580 | 18.89° C | 37% | 994.6 hPa | 0 mm | - | - | - |
| 1777731679 | 18.89° C | 35% | 994.7 hPa | 0 mm | - | - | - |
| 1777731379 | 18.89° C | 36% | 994.7 hPa | 0 mm | - | - | - |
| 1777730479 | 18.89° C | 34% | 994.8 hPa | 0 mm | - | - | - |
* Rain latest hour (hover to see other rain measurements)
** Current wind speed in m/s (hover to see current wind gust speed)